Flight Track Log - Related Links

Times and Time Zones

All times are in EDT time to prevent confusion due to time zone crossing. See the UAL335 flight status page for this flight to view local times or setup timezone preferences in your user account.

Time Position Orientation Groundspeed Altitude Reporting Facility
EDT Latitude Longitude Course Direction KTS MPH feet Rate Location/Type
Wed 07:06:04 AM 38.8667 -77.0500 270° West 149 171 1,300  Level Potomac TRACON
Wed 07:07:04 AM 38.9167 -77.1000 322° Northwest 223 257 3,600 2,895 Climbing Potomac TRACON
Wed 07:07:58 AM 38.9667 -77.1500 322° Northwest 263 303 6,800 3,302 Climbing Potomac TRACON
Wed 07:08:00 AM 38.9147 -77.3814 322° Northwest  Level FlightAware Approximate
Wed 07:09:00 AM 38.9333 -77.4996 270° West  Level FlightAware Approximate
Wed 07:10:00 AM 38.9333 -77.6253 270° West  Level FlightAware Approximate
Wed 07:10:13 AM 38.9644 -77.3911 269° West 289 333 14,000  Level Washington Center
Wed 07:11:00 AM 38.9333 -77.7510 270° West  Level FlightAware Approximate
Wed 07:11:14 AM 38.9542 -77.5189 264° West 355 409 16,800  Level Washington Center
Wed 07:12:14 AM 38.9436 -77.6628 265° West 376 433 19,300 2,479 Climbing Washington Center
Wed 07:13:15 AM 38.9456 -77.7828 271° West 381 438 21,800 2,607 Climbing Washington Center
Wed 07:14:16 AM 38.9511 -77.9378 273° West 390 449 24,600 2,380 Climbing Washington Center
Wed 07:15:16 AM 38.9567 -78.0769 273° West 390 449 26,600 1,200 Climbing Washington Center
Wed 07:16:16 AM 38.9597 -78.2239 272° West 402 463 27,000 407 Climbing Washington Center
Wed 07:17:14 AM 38.9667 -78.3708 274° West 409 471 27,400 966 Climbing Washington Center
Wed 07:18:14 AM 38.9717 -78.5206 273° West 414 476 28,900 1,623 Climbing Washington Center
Wed 07:19:16 AM 38.9758 -78.6811 272° West 430 495 30,700 1,636 Climbing Washington Center
Wed 07:20:15 AM 38.9803 -78.8361 272° West 446 513 32,200 1,765 Climbing Washington Center
Wed 07:21:15 AM 38.9842 -78.9964 272° West 446 513 34,200 2,231 Climbing Washington Center
Wed 07:22:16 AM 38.9878 -79.1517 272° West 445 512 36,700 1,835 Climbing Washington Center
Wed 07:23:16 AM 38.9917 -79.2986 272° West 429 494 37,900 661 Climbing Washington Center
Wed 07:24:14 AM 38.9956 -79.4458 272° West 424 488 38,000 50 Climbing Washington Center
Wed 07:25:15 AM 38.9992 -79.5875 272° West 432 497 38,000  Level Washington Center
Wed 07:26:16 AM 39.0003 -79.7400 271° West 438 504 38,000  Level Washington Center
Wed 07:28:07 AM 39.0042 -80.0272 271° West 426 490 38,000  Level Indianapolis Center
Wed 07:29:08 AM 39.0058 -80.1825 271° West 423 487 38,000  Level Indianapolis Center
Wed 07:30:10 AM 39.0089 -80.3353 272° West 428 493 38,000  Level Indianapolis Center
Wed 07:31:11 AM 39.0111 -80.4853 271° West 424 488 38,000  Level Indianapolis Center
Wed 07:32:13 AM 39.0131 -80.6372 271° West 426 490 38,000  Level Indianapolis Center
Wed 07:33:14 AM 39.0197 -80.7886 273° West 426 490 38,000  Level Indianapolis Center
Wed 07:34:16 AM 39.0614 -80.9294 291° West 423 487 38,000  Level Indianapolis Center
Wed 07:35:17 AM 39.1275 -81.0864 299° West 419 482 38,000  Level Indianapolis Center
Wed 07:36:18 AM 39.1825 -81.2200 298° West 425 489 38,000  Level Indianapolis Center
Wed 07:37:20 AM 39.2372 -81.3533 298° West 425 489 38,000  Level Indianapolis Center
Wed 07:38:21 AM 39.2925 -81.4883 298° West 428 493 38,000  Level Indianapolis Center
Wed 07:39:23 AM 39.3472 -81.6239 298° West 429 494 38,000  Level Indianapolis Center
Wed 07:40:24 AM 39.4008 -81.7586 297° West 426 490 38,000  Level Indianapolis Center
Wed 07:41:26 AM 39.4558 -81.8942 298° West 426 490 38,000  Level Indianapolis Center
Wed 07:42:27 AM 39.5106 -82.0306 298° West 427 491 38,000  Level Indianapolis Center
Wed 07:43:29 AM 39.5742 -82.1917 297° West 424 488 38,000  Level Indianapolis Center
Wed 07:44:30 AM 39.6283 -82.3286 297° West 425 489 38,000  Level Indianapolis Center
Wed 07:45:32 AM 39.6828 -82.4672 297° West 426 490 38,000  Level Indianapolis Center
Wed 07:46:34 AM 39.7375 -82.6042 297° West 426 490 38,000 -49 Level Indianapolis Center
Wed 07:47:35 AM 39.7908 -82.7419 297° West 425 489 37,900 -49 Descending Indianapolis Center
Wed 07:48:37 AM 39.8453 -82.8797 297° West 424 488 37,900  Level Indianapolis Center
Wed 07:49:38 AM 39.8983 -83.0169 297° West 424 488 37,900 49 Level Indianapolis Center
Wed 07:50:40 AM 39.9517 -83.1547 297° West 425 489 38,000 49 Climbing Indianapolis Center
Wed 07:51:41 AM 40.0136 -83.3150 297° West 426 490 38,000  Level Indianapolis Center
Wed 07:52:43 AM 40.0664 -83.4533 297° West 430 495 38,000 -98 Level Indianapolis Center
Wed 07:53:44 AM 40.1192 -83.5925 296° West 429 494 37,800 -585 Descending Indianapolis Center
Wed 07:54:46 AM 40.1719 -83.7317 296° West 426 490 36,800 -878 Descending Indianapolis Center
Wed 07:55:47 AM 40.2256 -83.8731 296° West 431 496 36,000 -634 Descending Indianapolis Center
Wed 07:56:49 AM 40.2775 -84.0128 296° West 425 489 35,500 -732 Descending Indianapolis Center
Wed 07:57:50 AM 40.3464 -84.1381 306° West 421 484 34,500 -780 Descending Indianapolis Center
Wed 07:58:52 AM 40.4022 -84.2731 299° West 425 489 33,900 -242 Descending Indianapolis Center
Wed 07:59:54 AM 40.4469 -84.4428 289° West 421 484 34,000 49 Climbing Indianapolis Center
Wed 08:00:55 AM 40.4856 -84.5872 289° West 418 481 34,000  Level Indianapolis Center
Wed 08:01:57 AM 40.5581 -84.7044 309° West 423 487 34,000  Level Indianapolis Center
Wed 08:02:59 AM 40.6464 -84.8050 319° Northwest 418 481 34,000  Level Indianapolis Center
Wed 08:03:14 AM 40.6589 -84.8206 317° Northwest 418 481 34,000  Level Chicago Center
Wed 08:04:16 AM 40.7467 -84.9192 320° Northwest 417 480 34,000  Level Chicago Center
Wed 08:05:18 AM 40.8519 -85.0403 319° Northwest 417 480 34,000 -146 Level Chicago Center
Wed 08:06:19 AM 40.9383 -85.1406 319° Northwest 415 478 33,700 -634 Descending Chicago Center
Wed 08:07:21 AM 40.9931 -85.2792 298° West 420 483 32,700 -968 Descending Chicago Center
Wed 08:08:23 AM 41.0461 -85.4189 297° West 423 487 31,700 -1,113 Descending Chicago Center
Wed 08:09:25 AM 41.1006 -85.5572 298° West 421 484 30,400 -1,463 Descending Chicago Center
Wed 08:10:26 AM 41.1469 -85.6989 294° West 418 481 28,700 -1,707 Descending Chicago Center
Wed 08:11:28 AM 41.2025 -85.8369 298° West 419 482 26,900 -1,790 Descending Chicago Center
Wed 08:12:30 AM 41.2572 -85.9731 298° West 416 479 25,000 -919 Descending Chicago Center
Wed 08:13:32 AM 41.3100 -86.1439 292° West 413 475 25,000  Level Chicago Center
Wed 08:14:34 AM 41.3456 -86.2872 288° West 410 472 25,000  Level Chicago Center
Wed 08:15:35 AM 41.3814 -86.4317 288° West 410 472 25,000 -976 Level Chicago Center
Wed 08:16:37 AM 41.4175 -86.5739 289° West 408 470 23,000 -1,984 Descending Chicago Center
Wed 08:17:39 AM 41.4539 -86.7231 288° West 392 451 20,900 -1,935 Descending Chicago Center
Wed 08:18:41 AM 41.4864 -86.8528 289° West 377 434 19,000 -1,887 Descending Chicago Center
Wed 08:19:43 AM 41.5178 -86.9811 288° West 368 423 17,000 -2,323 Descending Chicago Center
Wed 08:20:45 AM 41.5481 -87.1064 288° West 359 413 14,200 -2,907 Descending Chicago Center
Wed 08:21:20 AM 41.5667 -87.2000 285° West 380 437 12,300 -2,463 Descending Chicago TRACON
Wed 08:22:20 AM 41.6333 -87.3167 307° West 380 437 10,300 -1,568 Descending Chicago TRACON
Wed 08:22:48 AM 41.6592 -87.3689 304° West 376 433 10,000 -200 Descending Chicago Center
Wed 08:23:50 AM 41.7231 -87.4733 309° West 368 423 10,000 -339 Level Chicago Center
Wed 08:24:52 AM 41.7789 -87.5656 309° West 324 373 9,300 -1,065 Descending Chicago Center
Wed 08:25:54 AM 41.8322 -87.6506 310° West 302 348 7,800 -1,468 Descending Chicago Center
Wed 08:26:26 AM 41.8833 -87.6833 334° Northwest 302 348 7,000 -558 Descending Chicago TRACON
Wed 08:27:20 AM 41.9500 -87.6833 360° North 294 338 7,000 -53 Level Chicago TRACON
Wed 08:28:20 AM 42.0167 -87.6833 360° North 246 283 6,900  Descending Chicago TRACON
Wed 08:29:20 AM 42.0833 -87.6500 20° North 208 239 7,000 -450 Climbing Chicago TRACON
Wed 08:30:20 AM 42.1333 -87.6333 14° North 210 242 6,000 -932 Descending Chicago TRACON
Wed 08:31:03 AM 42.1486 -87.6725 298° West 203 234 5,400 -857 Descending Chicago Center
Wed 08:32:05 AM 42.1467 -87.7294 267° West 180 207 4,500 -823 Descending Chicago Center
Wed 08:33:07 AM 42.1086 -87.7742 221° Southwest 157 181 3,700 -882 Descending Chicago Center
Wed 08:34:21 AM 42.0667 -87.8167 217° Southwest 134 154 2,500 -806 Descending Chicago TRACON
Wed 08:35:21 AM 42.0500 -87.8333 217° Southwest 116 133 1,900 -600 Descending Chicago TRACON

Login

Don't have an account? Register now (free) for customized features, flight alerts, and more!